createdAt,value
2019-03-04T00:01:11.853Z,78.60
2019-03-04T00:03:42.757Z,78.63
2019-03-04T00:06:13.689Z,78.70
2019-03-04T00:08:44.567Z,78.71
2019-03-04T00:11:15.500Z,78.94
2019-03-04T00:13:46.386Z,78.89
2019-03-04T00:16:17.351Z,78.90
2019-03-04T00:18:48.245Z,78.94
2019-03-04T00:21:19.174Z,79.04
2019-03-04T00:23:50.072Z,79.07
2019-03-04T00:26:20.999Z,79.08
2019-03-04T00:28:51.897Z,79.13
2019-03-04T00:31:24.432Z,79.15
2019-03-04T00:33:55.410Z,79.20
2019-03-04T00:36:26.331Z,79.21
2019-03-04T00:38:57.223Z,79.62
2019-03-04T00:41:28.145Z,79.47
2019-03-04T00:43:59.035Z,79.54
2019-03-04T00:46:30.902Z,79.66
2019-03-04T00:49:02.459Z,79.71
2019-03-04T00:51:33.460Z,79.75
2019-03-04T00:54:04.361Z,79.72
2019-03-04T00:56:35.281Z,79.68
2019-03-04T00:59:06.173Z,79.84
2019-03-04T01:01:38.073Z,79.79
2019-03-04T01:04:08.965Z,79.80
2019-03-04T01:06:39.884Z,80.00
2019-03-04T01:09:12.760Z,79.94
2019-03-04T01:11:43.677Z,80.26
2019-03-04T01:14:14.575Z,80.72
2019-03-04T01:16:46.881Z,80.65
2019-03-04T01:19:17.735Z,80.48
2019-03-04T01:21:48.656Z,80.45
2019-03-04T01:24:19.547Z,80.41
2019-03-04T01:26:50.481Z,80.43
2019-03-04T01:29:21.376Z,80.53
2019-03-04T01:31:54.061Z,80.80
2019-03-04T01:34:24.940Z,80.73
2019-03-04T01:36:55.860Z,80.79
2019-03-04T01:39:26.759Z,80.71
2019-03-04T01:41:57.688Z,80.63
2019-03-04T01:44:28.578Z,80.69
2019-03-04T01:47:01.230Z,80.82
2019-03-04T01:49:32.044Z,80.77
2019-03-04T01:52:02.969Z,80.74
2019-03-04T01:54:33.855Z,81.35
2019-03-04T01:57:04.783Z,80.88
2019-03-04T01:59:35.681Z,81.31
2019-03-04T02:02:07.472Z,81.50
2019-03-04T02:04:38.369Z,81.23
2019-03-04T02:07:09.293Z,81.25
2019-03-04T02:09:40.587Z,83.21
2019-03-04T02:12:11.499Z,84.52
2019-03-04T02:14:42.394Z,84.14
2019-03-04T02:17:13.398Z,83.77
2019-03-04T02:19:44.294Z,84.18
2019-03-04T02:22:15.205Z,85.47
2019-03-04T02:24:46.459Z,84.87
2019-03-04T02:27:17.333Z,84.04
2019-03-04T02:29:48.234Z,83.11
2019-03-04T02:32:19.259Z,84.36
2019-03-04T02:34:50.163Z,84.59
2019-03-04T02:37:21.078Z,85.01
2019-03-04T02:39:51.978Z,84.54
2019-03-04T02:42:22.911Z,84.18
2019-03-04T02:44:53.793Z,84.76
2019-03-04T02:47:24.744Z,84.62
2019-03-04T02:49:55.648Z,84.72
2019-03-04T02:52:26.565Z,84.25
2019-03-04T02:54:57.452Z,84.92
2019-03-04T02:57:28.946Z,84.06
2019-03-04T02:59:59.798Z,83.49
2019-03-04T03:02:30.826Z,83.11
2019-03-04T03:05:01.717Z,83.48
2019-03-04T03:07:32.640Z,83.96
2019-03-04T03:10:05.052Z,83.68
2019-03-04T03:12:36.096Z,83.71
2019-03-04T03:15:09.762Z,83.72
2019-03-04T03:17:40.781Z,84.22
2019-03-04T03:20:15.868Z,84.20
2019-03-04T03:22:46.867Z,84.74
2019-03-04T03:25:17.877Z,85.18
2019-03-04T03:27:48.803Z,84.55
2019-03-04T03:30:23.723Z,85.01
2019-03-04T03:32:54.678Z,84.71
2019-03-04T03:35:25.575Z,84.80
2019-03-04T03:37:56.498Z,84.67
2019-03-04T03:40:27.403Z,84.23
2019-03-04T03:42:58.319Z,84.07
2019-03-04T03:45:29.215Z,84.54
2019-03-04T03:48:01.046Z,84.13
2019-03-04T03:50:31.939Z,84.28
2019-03-04T03:53:02.869Z,84.85
2019-03-04T03:55:33.754Z,85.48
2019-03-04T03:58:04.675Z,86.55
2019-03-04T04:00:35.554Z,86.80
2019-03-04T04:03:07.285Z,88.46
2019-03-04T04:05:38.159Z,88.81
2019-03-04T04:08:09.078Z,88.66
2019-03-04T04:10:39.965Z,88.55
2019-03-04T04:13:10.876Z,88.01
2019-03-04T04:15:41.832Z,88.46
2019-03-04T04:18:13.705Z,87.90
2019-03-04T04:20:44.670Z,87.66
2019-03-04T04:23:15.598Z,87.58
2019-03-04T04:25:47.095Z,87.31
2019-03-04T04:28:18.020Z,87.29
2019-03-04T04:30:48.916Z,87.08
2019-03-04T04:33:19.826Z,86.63
2019-03-04T04:35:50.707Z,86.74
2019-03-04T04:38:21.635Z,86.68
2019-03-04T04:40:52.539Z,86.56
2019-03-04T04:43:23.459Z,86.34
2019-03-04T04:45:54.363Z,86.23
2019-03-04T04:48:26.176Z,86.28
2019-03-04T04:50:57.084Z,86.24
2019-03-04T04:53:28.019Z,86.12
2019-03-04T04:55:58.918Z,85.93
2019-03-04T04:58:29.912Z,86.22
2019-03-04T05:01:00.806Z,86.16
2019-03-04T05:03:31.779Z,86.12
2019-03-04T05:06:02.677Z,86.00
2019-03-04T05:08:33.604Z,85.92
2019-03-04T05:11:04.571Z,85.78
2019-03-04T05:13:36.308Z,86.21
2019-03-04T05:16:07.225Z,86.06
2019-03-04T05:18:38.977Z,86.02
2019-03-04T05:21:09.879Z,85.67
2019-03-04T05:23:40.879Z,86.01
2019-03-04T05:26:11.780Z,85.83
2019-03-04T05:28:42.760Z,85.80
2019-03-04T05:31:13.681Z,86.17
2019-03-04T05:33:45.433Z,86.11
2019-03-04T05:36:16.321Z,85.68
2019-03-04T05:38:47.250Z,85.85
2019-03-04T05:41:18.152Z,85.56
2019-03-04T05:43:49.088Z,85.95
2019-03-04T05:46:19.993Z,85.79
2019-03-04T05:48:53.607Z,85.83
2019-03-04T05:51:24.521Z,85.60
2019-03-04T05:53:55.456Z,85.81
2019-03-04T05:56:26.367Z,85.74
2019-03-04T05:58:57.307Z,85.89
2019-03-04T06:01:29.681Z,85.67
2019-03-04T06:04:05.568Z,85.71
2019-03-04T06:06:46.903Z,85.42
2019-03-04T06:09:17.831Z,85.14
2019-03-04T06:11:48.729Z,85.57
2019-03-04T06:14:19.679Z,85.46
2019-03-04T06:16:50.589Z,85.19
2019-03-04T06:19:22.335Z,84.99
2019-03-04T06:21:53.234Z,85.03
2019-03-04T06:24:24.158Z,85.08
2019-03-04T06:26:55.772Z,85.02
2019-03-04T06:29:26.741Z,84.74
2019-03-04T06:31:57.671Z,84.79
2019-03-04T06:34:28.620Z,84.46
2019-03-04T06:36:59.529Z,84.45
2019-03-04T06:39:30.468Z,84.48
2019-03-04T06:42:01.381Z,84.45
2019-03-04T06:44:32.308Z,84.50
2019-03-04T06:47:03.218Z,84.45
2019-03-04T06:49:35.801Z,84.45
2019-03-04T06:52:06.698Z,84.20
2019-03-04T06:54:55.433Z,84.24
2019-03-04T06:57:28.649Z,84.25
2019-03-04T07:00:20.031Z,84.40
2019-03-04T07:02:50.911Z,84.16
2019-03-04T07:05:44.618Z,84.21
2019-03-04T07:08:38.035Z,84.11
2019-03-04T07:11:09.036Z,84.17
2019-03-04T07:13:39.942Z,83.98
2019-03-04T07:16:10.872Z,83.72
2019-03-04T07:18:41.789Z,83.53
2019-03-04T07:21:12.831Z,83.28
2019-03-04T07:23:43.807Z,82.93
2019-03-04T07:26:14.763Z,82.73
2019-03-04T07:28:45.661Z,82.63
2019-03-04T07:31:16.595Z,82.25
2019-03-04T07:33:47.514Z,81.88
2019-03-04T07:36:18.488Z,81.59
2019-03-04T07:38:54.439Z,81.26
2019-03-04T07:41:25.783Z,81.15
2019-03-04T07:43:56.685Z,81.16
2019-03-04T07:46:28.392Z,81.20
2019-03-04T07:48:59.295Z,80.63
2019-03-04T07:51:31.986Z,79.95
2019-03-04T07:54:02.889Z,79.45
2019-03-04T07:56:33.900Z,78.69
2019-03-04T07:59:05.238Z,77.86
2019-03-04T08:01:36.165Z,77.39
2019-03-04T08:04:08.821Z,76.81
2019-03-04T08:06:40.650Z,76.48
2019-03-04T08:09:29.479Z,75.94
2019-03-04T08:12:09.003Z,75.43
2019-03-04T08:14:40.912Z,74.91
2019-03-04T08:17:15.550Z,74.76
2019-03-04T08:19:46.418Z,74.53
2019-03-04T08:22:18.171Z,74.49
2019-03-04T08:24:49.062Z,74.56
2019-03-04T08:27:19.996Z,74.48
2019-03-04T08:29:50.920Z,74.55
2019-03-04T08:32:24.750Z,74.54
2019-03-04T08:34:57.247Z,74.52
2019-03-04T08:37:29.081Z,74.57
2019-03-04T08:39:59.971Z,74.43
2019-03-04T08:42:30.913Z,74.33
2019-03-04T08:45:01.809Z,74.34
2019-03-04T08:47:32.734Z,74.39
2019-03-04T08:50:05.032Z,74.16
2019-03-04T08:52:36.830Z,73.89
2019-03-04T08:55:10.235Z,73.81
2019-03-04T08:57:41.163Z,73.87
2019-03-04T09:00:15.105Z,73.86
2019-03-04T09:02:46.049Z,73.74
2019-03-04T09:05:16.955Z,73.76
2019-03-04T09:07:48.750Z,73.70
2019-03-04T09:10:28.151Z,73.68
2019-03-04T09:12:59.072Z,73.47
2019-03-04T09:15:29.981Z,73.47
2019-03-04T09:18:00.912Z,73.27
2019-03-04T09:20:31.810Z,73.22
2019-03-04T09:23:03.595Z,72.98
2019-03-04T09:25:46.285Z,72.81
2019-03-04T09:28:17.201Z,72.51
2019-03-04T09:30:48.092Z,72.36
2019-03-04T09:33:19.021Z,72.15
2019-03-04T09:35:49.920Z,71.92
2019-03-04T09:38:20.868Z,71.83
2019-03-04T09:40:51.765Z,71.70
2019-03-04T09:43:22.674Z,71.53
2019-03-04T09:45:53.577Z,71.61
2019-03-04T09:48:24.491Z,71.45
2019-03-04T09:50:55.393Z,71.39
2019-03-04T09:53:28.061Z,71.16
2019-03-04T09:55:58.941Z,70.84
2019-03-04T09:58:29.888Z,70.32
2019-03-04T10:01:09.533Z,69.89
2019-03-04T10:03:43.367Z,69.72
2019-03-04T10:06:29.259Z,69.48
2019-03-04T10:09:12.927Z,69.55
2019-03-04T10:11:46.725Z,69.22
2019-03-04T10:14:44.679Z,69.33
2019-03-04T10:17:24.214Z,69.36
2019-03-04T10:20:23.633Z,69.27
2019-03-04T10:23:09.532Z,69.11
2019-03-04T10:26:06.701Z,68.55
2019-03-04T10:28:52.549Z,68.52
2019-03-04T10:31:26.383Z,68.47
2019-03-04T10:34:00.180Z,68.46
2019-03-04T10:36:42.277Z,68.53
2019-03-04T10:39:31.332Z,68.76
2019-03-04T10:42:14.152Z,68.69
2019-03-04T10:45:08.331Z,68.55
2019-03-04T10:47:39.256Z,68.51
2019-03-04T10:50:11.143Z,68.49
2019-03-04T10:52:42.087Z,68.30
2019-03-04T10:55:13.769Z,68.32
2019-03-04T10:57:45.521Z,68.40
2019-03-04T11:00:20.485Z,68.25
2019-03-04T11:02:51.407Z,68.38
2019-03-04T11:05:22.294Z,68.35
2019-03-04T11:07:53.231Z,68.61
2019-03-04T11:10:24.113Z,68.72
2019-03-04T11:12:56.672Z,68.88
2019-03-04T11:15:27.867Z,68.89
2019-03-04T11:17:58.799Z,68.87
2019-03-04T11:20:29.689Z,68.75
2019-03-04T11:23:00.680Z,68.66
2019-03-04T11:25:32.152Z,68.63
2019-03-04T11:28:03.096Z,68.50
2019-03-04T11:30:34.145Z,68.38
2019-03-04T11:33:05.190Z,68.18
2019-03-04T11:35:36.064Z,67.84
2019-03-04T11:38:08.901Z,67.60
2019-03-04T11:40:44.434Z,67.22
2019-03-04T11:43:16.179Z,67.16
2019-03-04T11:45:47.137Z,66.94
2019-03-04T11:48:18.055Z,66.76
2019-03-04T11:50:48.960Z,66.56
2019-03-04T11:53:19.889Z,66.07
2019-03-04T11:55:53.478Z,65.49
2019-03-04T11:58:25.259Z,65.31
2019-03-04T12:00:59.329Z,65.23
2019-03-04T12:03:30.268Z,65.34
2019-03-04T12:06:01.163Z,64.81
2019-03-04T12:08:32.082Z,64.48
2019-03-04T12:11:02.969Z,64.37
2019-03-04T12:13:35.609Z,63.96
2019-03-04T12:16:06.500Z,63.94
2019-03-04T12:18:37.431Z,63.71
2019-03-04T12:21:08.330Z,63.74
2019-03-04T12:23:39.249Z,63.55
2019-03-04T12:26:10.212Z,63.29
2019-03-04T12:28:43.077Z,62.77
2019-03-04T12:31:14.046Z,62.34
2019-03-04T12:33:44.979Z,62.43
2019-03-04T12:36:15.894Z,62.00
2019-03-04T12:38:46.802Z,62.16
2019-03-04T12:41:17.695Z,61.97
2019-03-04T12:52:14.691Z,62.23
2019-03-04T12:54:45.600Z,62.39
2019-03-04T12:57:18.063Z,62.36
2019-03-04T12:59:49.859Z,62.21
2019-03-04T13:02:21.635Z,61.82
2019-03-04T13:04:52.627Z,62.11
2019-03-04T13:07:23.551Z,62.12
2019-03-04T13:09:54.588Z,62.43
2019-03-04T13:12:25.488Z,62.63
2019-03-04T13:14:58.022Z,62.42
2019-03-04T13:17:28.915Z,62.74
2019-03-04T13:19:59.824Z,62.98
2019-03-04T13:22:30.719Z,63.40
2019-03-04T13:25:01.655Z,63.34
2019-03-04T13:27:33.430Z,63.46
2019-03-04T13:30:19.963Z,63.69
2019-03-04T13:32:50.951Z,63.84
2019-03-04T13:35:30.243Z,63.85
2019-03-04T13:38:01.812Z,64.11
2019-03-04T13:40:32.846Z,64.21
2019-03-04T13:43:05.281Z,64.34
2019-03-04T13:45:37.157Z,64.47
2019-03-04T13:48:08.067Z,64.48
2019-03-04T13:50:39.086Z,64.46
2019-03-04T13:53:09.990Z,64.36
2019-03-04T13:55:40.911Z,64.80
2019-03-04T13:58:13.377Z,64.61
2019-03-04T14:00:46.177Z,64.56
2019-03-04T14:03:17.065Z,64.42
2019-03-04T14:05:48.078Z,64.56
2019-03-04T14:08:18.967Z,64.34
2019-03-04T14:10:50.272Z,64.24
2019-03-04T14:13:21.241Z,64.08
2019-03-04T14:15:54.589Z,63.88
2019-03-04T14:18:25.488Z,63.73
2019-03-04T14:20:56.418Z,63.67
2019-03-04T14:23:27.324Z,63.47
2019-03-04T14:25:58.262Z,63.38
2019-03-04T14:28:29.238Z,63.23
2019-03-04T14:31:01.043Z,63.26
2019-03-04T14:33:31.936Z,63.14
2019-03-04T14:36:02.857Z,63.24
2019-03-04T14:38:33.754Z,62.93
2019-03-04T14:41:04.669Z,62.88
2019-03-04T14:43:35.563Z,62.65
2019-03-04T14:46:07.312Z,62.40
2019-03-04T14:48:38.212Z,62.26
2019-03-04T14:51:09.120Z,61.88
2019-03-04T14:53:40.006Z,61.80
2019-03-04T14:56:10.925Z,61.67
2019-03-04T14:58:41.834Z,61.47
2019-03-04T15:01:13.628Z,61.18
2019-03-04T15:03:44.510Z,61.05
2019-03-04T15:06:15.434Z,60.83
2019-03-04T15:08:46.336Z,60.76
2019-03-04T15:11:17.252Z,60.68
2019-03-04T15:13:48.154Z,63.83
2019-03-04T15:16:19.958Z,66.16
2019-03-04T15:18:50.854Z,68.54
2019-03-04T15:21:21.842Z,69.99
2019-03-04T15:23:52.736Z,71.18
2019-03-04T15:26:24.451Z,71.71
2019-03-04T15:28:55.348Z,72.54
2019-03-04T15:31:27.164Z,73.03
2019-03-04T15:33:58.048Z,72.89
2019-03-04T15:36:30.438Z,72.83
2019-03-04T15:39:01.400Z,72.98
2019-03-04T15:41:32.382Z,73.90
2019-03-04T15:44:03.273Z,74.21
2019-03-04T15:46:35.929Z,73.81
2019-03-04T15:49:06.830Z,74.45
2019-03-04T15:51:37.817Z,74.24
2019-03-04T15:54:08.705Z,74.55
2019-03-04T15:56:40.727Z,74.84
2019-03-04T15:59:12.756Z,75.17
2019-03-04T16:01:44.033Z,75.36
2019-03-04T16:04:15.244Z,75.32
2019-03-04T16:06:46.491Z,75.37
2019-03-04T16:09:18.893Z,75.22
2019-03-04T16:11:50.168Z,75.14
2019-03-04T16:14:21.267Z,75.05
2019-03-04T16:16:53.110Z,74.78
2019-03-04T16:19:24.087Z,74.35
2019-03-04T16:21:55.134Z,74.23
2019-03-04T16:24:26.083Z,74.42
2019-03-04T16:26:57.335Z,74.50
2019-03-04T16:29:36.888Z,74.92
2019-03-04T16:32:01.865Z,74.44
2019-03-04T16:34:32.825Z,74.29
2019-03-04T16:37:05.865Z,74.42
2019-03-04T16:39:36.817Z,74.62
2019-03-04T16:42:07.834Z,74.60
2019-03-04T16:44:40.048Z,74.39
2019-03-04T16:47:11.237Z,74.50
2019-03-04T16:49:42.145Z,74.34
2019-03-04T16:52:13.057Z,74.58
2019-03-04T16:54:43.960Z,74.27
2019-03-04T16:57:14.893Z,74.44
2019-03-04T16:59:47.375Z,74.58
2019-03-04T17:02:18.325Z,74.35
2019-03-04T17:04:50.012Z,74.21
2019-03-04T17:07:20.922Z,74.16
2019-03-04T17:09:51.826Z,73.78
2019-03-04T17:12:22.757Z,73.49
2019-03-04T17:14:53.739Z,73.28
2019-03-04T17:17:24.680Z,73.09
2019-03-04T17:19:55.575Z,72.86
2019-03-04T17:22:26.870Z,72.56
2019-03-04T17:24:57.784Z,72.48
2019-03-04T17:27:28.729Z,72.23
2019-03-04T17:29:59.713Z,72.20
2019-03-04T17:32:30.691Z,72.08
2019-03-04T17:35:01.603Z,71.81
2019-03-04T17:37:32.537Z,71.59
2019-03-04T17:40:03.432Z,71.44
2019-03-04T17:42:34.361Z,71.30
2019-03-04T17:45:07.802Z,71.12
2019-03-04T17:47:39.785Z,71.06
2019-03-04T17:50:13.585Z,70.99
2019-03-04T17:52:44.524Z,71.00
2019-03-04T17:55:15.921Z,70.99
2019-03-04T17:57:46.852Z,70.89
2019-03-04T18:00:19.892Z,70.86
2019-03-04T18:02:51.653Z,70.83
2019-03-04T18:05:22.549Z,70.89
2019-03-04T18:07:53.479Z,70.98
2019-03-04T18:10:24.958Z,71.28
2019-03-04T18:12:58.183Z,71.43
2019-03-04T18:15:31.612Z,71.44
2019-03-04T18:18:03.352Z,71.52
2019-03-04T18:20:34.872Z,71.55
2019-03-04T18:23:06.232Z,71.29
2019-03-04T18:25:45.565Z,71.26
2019-03-04T18:28:19.404Z,71.16
2019-03-04T18:30:59.197Z,71.17
2019-03-04T18:33:49.355Z,70.96
2019-03-04T18:36:37.498Z,71.04
2019-03-04T18:39:26.472Z,70.97
2019-03-04T18:42:06.491Z,71.14
2019-03-04T18:44:46.014Z,70.92
2019-03-04T18:47:38.027Z,70.37
2019-03-04T18:50:09.829Z,69.97
2019-03-04T18:52:40.763Z,69.63
2019-03-04T18:55:11.939Z,69.46
2019-03-04T18:57:42.993Z,69.21
2019-03-04T19:00:25.586Z,69.03
2019-03-04T19:02:56.482Z,68.79
2019-03-04T19:05:28.300Z,68.87
2019-03-04T19:07:59.201Z,68.90
2019-03-04T19:10:30.127Z,68.98
2019-03-04T19:13:01.011Z,69.62
2019-03-04T19:15:31.955Z,70.96
2019-03-04T19:18:02.916Z,72.09
2019-03-04T19:20:34.791Z,73.37
2019-03-04T19:23:05.676Z,74.17
2019-03-04T19:25:36.594Z,74.29
2019-03-04T19:28:07.477Z,75.27
2019-03-04T19:30:38.683Z,76.17
2019-03-04T19:33:09.578Z,76.56
2019-03-04T19:35:42.981Z,77.02
2019-03-04T19:38:13.865Z,77.76
2019-03-04T19:40:44.776Z,78.02
2019-03-04T19:43:15.737Z,78.38
2019-03-04T19:45:46.658Z,77.73
2019-03-04T19:48:17.543Z,77.58
2019-03-04T19:50:49.344Z,77.71
2019-03-04T19:53:20.231Z,77.85
2019-03-04T19:55:51.144Z,77.99
2019-03-04T19:58:22.024Z,78.02
2019-03-04T20:00:52.944Z,78.23
2019-03-04T20:03:24.758Z,78.33
2019-03-04T20:05:56.506Z,78.50
2019-03-04T20:08:27.383Z,78.32
2019-03-04T20:10:58.296Z,78.11
2019-03-04T20:13:29.178Z,78.18
2019-03-04T20:16:00.620Z,78.26
2019-03-04T20:18:31.508Z,77.68
2019-03-04T20:21:04.189Z,77.91
2019-03-04T20:23:35.076Z,78.25
2019-03-04T20:26:05.978Z,78.19
2019-03-04T20:28:36.868Z,78.44
2019-03-04T20:31:08.824Z,78.67
2019-03-04T20:33:39.696Z,78.62
2019-03-04T20:36:12.242Z,78.95
2019-03-04T20:41:40.265Z,78.86
2019-03-04T20:44:11.366Z,78.95
2019-03-04T20:46:42.346Z,79.24
2019-03-04T20:49:13.237Z,79.22
2019-03-04T20:51:44.954Z,79.17
2019-03-04T20:54:15.923Z,79.08
2019-03-04T20:56:46.832Z,78.98
2019-03-04T20:59:17.714Z,78.90
2019-03-04T21:01:48.696Z,78.71
2019-03-04T21:04:20.364Z,78.72
2019-03-04T21:06:52.134Z,79.00
2019-03-04T21:09:23.492Z,78.54
2019-03-04T21:11:54.419Z,78.61
2019-03-04T21:14:25.310Z,78.64
2019-03-04T21:16:56.226Z,78.31
2019-03-04T21:19:27.825Z,78.29
2019-03-04T21:21:59.604Z,78.22
2019-03-04T21:24:30.493Z,78.23
2019-03-04T21:27:01.407Z,78.08
2019-03-04T21:29:37.929Z,77.96
2019-03-04T21:32:11.773Z,78.04
2019-03-04T21:34:54.136Z,77.60
2019-03-04T21:37:29.478Z,77.43
2019-03-04T21:40:03.556Z,77.30
2019-03-04T21:42:43.221Z,77.16
2019-03-04T21:45:37.764Z,77.21
2019-03-04T21:48:26.017Z,77.06
2019-03-04T21:51:11.486Z,77.07
2019-03-04T21:53:51.651Z,76.81
2019-03-04T21:56:43.726Z,76.82
2019-03-04T21:59:14.698Z,76.33
2019-03-04T22:01:51.443Z,76.11
2019-03-04T22:04:23.271Z,75.94
2019-03-04T22:06:54.192Z,75.83
2019-03-04T22:09:28.028Z,75.75
2019-03-04T22:11:59.026Z,75.36
2019-03-04T22:14:30.206Z,75.28
2019-03-04T22:17:01.080Z,75.22
2019-03-04T22:19:32.025Z,74.98
2019-03-04T22:22:03.131Z,74.78
2019-03-04T22:24:35.947Z,74.66
2019-03-04T22:27:06.988Z,74.41
2019-03-04T22:29:37.865Z,74.38
2019-03-04T22:32:08.750Z,74.20
2019-03-04T22:34:39.660Z,73.94
2019-03-04T22:37:10.546Z,74.08
2019-03-04T22:39:42.321Z,73.64
2019-03-04T22:42:13.217Z,73.17
2019-03-04T22:44:59.559Z,73.15
2019-03-04T22:47:30.423Z,73.09
2019-03-04T22:50:01.341Z,73.00
2019-03-04T22:52:32.247Z,72.76
2019-03-04T22:55:04.076Z,72.64
2019-03-04T22:57:34.948Z,72.50
2019-03-04T23:00:49.595Z,72.42
2019-03-04T23:03:20.764Z,72.51
2019-03-04T23:05:57.905Z,72.40
2019-03-04T23:08:28.791Z,72.66
2019-03-04T23:11:00.592Z,72.57
2019-03-04T23:13:58.705Z,72.83
2019-03-04T23:16:31.912Z,72.94
2019-03-04T23:19:02.796Z,72.79
2019-03-04T23:21:33.711Z,73.23
2019-03-04T23:24:06.058Z,73.10
2019-03-04T23:26:36.994Z,73.27
2019-03-04T23:29:07.864Z,73.40
2019-03-04T23:31:38.826Z,73.44
2019-03-04T23:34:09.750Z,73.63
2019-03-04T23:36:40.654Z,74.09
2019-03-04T23:39:11.548Z,74.14
2019-03-04T23:41:42.487Z,74.33
2019-03-04T23:44:13.370Z,74.80
2019-03-04T23:46:44.285Z,74.55
2019-03-04T23:49:15.160Z,74.88
2019-03-04T23:51:47.037Z,74.37
2019-03-04T23:54:17.916Z,74.56
2019-03-04T23:56:48.848Z,74.73
2019-03-04T23:59:19.729Z,74.68
